createdAt,value
2022-10-17T00:01:11.997Z,19.52
2022-10-17T00:03:41.866Z,19.50
2022-10-17T00:06:12.704Z,19.51
2022-10-17T00:08:42.305Z,19.43
2022-10-17T00:11:15.067Z,19.54
2022-10-17T00:13:45.060Z,19.54
2022-10-17T00:16:14.923Z,19.54
2022-10-17T00:18:43.349Z,19.53
2022-10-17T00:21:17.000Z,19.55
2022-10-17T00:23:45.469Z,19.52
2022-10-17T00:26:15.120Z,19.50
2022-10-17T00:28:47.995Z,19.51
2022-10-17T00:31:18.278Z,19.51
2022-10-17T00:33:47.331Z,19.52
2022-10-17T00:36:19.576Z,19.34
2022-10-17T00:38:51.706Z,19.51
2022-10-17T00:41:23.677Z,19.45
2022-10-17T00:43:56.382Z,19.48
2022-10-17T00:46:29.490Z,19.44
2022-10-17T00:49:00.186Z,19.42
2022-10-17T00:51:35.312Z,19.39
2022-10-17T00:54:04.736Z,19.36
2022-10-17T00:56:33.752Z,19.34
2022-10-17T00:59:03.899Z,19.31
2022-10-17T01:01:33.553Z,19.30
2022-10-17T01:04:01.997Z,19.27
2022-10-17T01:06:30.283Z,19.27
2022-10-17T01:08:58.595Z,19.29
2022-10-17T01:11:39.289Z,19.31
2022-10-17T01:14:18.181Z,19.32
2022-10-17T01:16:53.387Z,19.33
2022-10-17T01:19:51.291Z,19.32
2022-10-17T01:22:28.486Z,19.26
2022-10-17T01:25:22.771Z,19.22
2022-10-17T01:28:02.455Z,19.17
2022-10-17T01:31:00.605Z,19.15
2022-10-17T01:33:39.464Z,18.78
2022-10-17T01:36:12.807Z,19.11
2022-10-17T01:38:48.964Z,19.14
2022-10-17T01:41:26.551Z,19.18
2022-10-17T01:44:01.323Z,19.17
2022-10-17T01:46:34.357Z,19.19
2022-10-17T01:49:05.838Z,19.18
2022-10-17T01:51:39.326Z,18.83
2022-10-17T01:54:13.361Z,19.15
2022-10-17T01:56:44.038Z,19.16
2022-10-17T01:59:16.364Z,18.29
2022-10-17T02:01:52.275Z,19.19
2022-10-17T02:04:20.964Z,19.06
2022-10-17T02:06:49.191Z,19.21
2022-10-17T02:09:23.514Z,19.23
2022-10-17T02:12:18.467Z,19.19
2022-10-17T02:15:02.981Z,19.15
2022-10-17T02:17:43.683Z,19.13
2022-10-17T02:20:21.545Z,19.07
2022-10-17T02:22:57.888Z,19.00
2022-10-17T02:25:37.628Z,18.90
2022-10-17T02:28:18.194Z,18.87
2022-10-17T02:30:52.821Z,18.63
2022-10-17T02:33:27.038Z,18.80
2022-10-17T02:36:02.263Z,18.60
2022-10-17T02:38:32.994Z,18.56
2022-10-17T02:41:03.345Z,18.76
2022-10-17T02:43:32.145Z,18.70
2022-10-17T02:46:01.172Z,18.63
2022-10-17T02:48:38.559Z,18.60
2022-10-17T02:51:14.080Z,18.56
2022-10-17T02:53:50.923Z,18.55
2022-10-17T02:56:21.645Z,18.49
2022-10-17T02:58:53.535Z,18.47
2022-10-17T03:01:23.220Z,18.45
2022-10-17T03:03:53.194Z,18.40
2022-10-17T03:06:21.565Z,18.37
2022-10-17T03:08:49.782Z,18.32
2022-10-17T03:11:19.226Z,18.30
2022-10-17T03:13:47.468Z,18.24
2022-10-17T03:16:16.454Z,18.20
2022-10-17T03:18:47.947Z,18.17
2022-10-17T03:21:19.814Z,18.12
2022-10-17T03:23:48.441Z,17.90
2022-10-17T03:26:17.621Z,18.05
2022-10-17T03:28:47.637Z,17.99
2022-10-17T03:31:18.903Z,17.93
2022-10-17T03:33:48.225Z,17.88
2022-10-17T03:36:20.982Z,17.83
2022-10-17T03:38:49.869Z,17.78
2022-10-17T03:41:18.896Z,17.77
2022-10-17T03:43:47.380Z,17.74
2022-10-17T03:46:15.865Z,17.77
2022-10-17T03:48:44.647Z,17.77
2022-10-17T03:51:13.097Z,17.73
2022-10-17T03:53:56.777Z,17.71
2022-10-17T03:56:26.701Z,17.67
2022-10-17T03:59:02.843Z,17.68
2022-10-17T04:01:40.974Z,17.70
2022-10-17T04:04:13.457Z,17.70
2022-10-17T04:06:41.859Z,17.67
2022-10-17T04:09:13.473Z,17.66
2022-10-17T04:11:49.028Z,17.64
2022-10-17T04:14:18.036Z,17.66
2022-10-17T04:16:46.449Z,17.67
2022-10-17T04:19:19.137Z,18.50
2022-10-17T04:21:48.716Z,18.07
2022-10-17T04:24:18.672Z,17.88
2022-10-17T04:26:52.393Z,17.76
2022-10-17T04:29:23.385Z,17.72
2022-10-17T04:31:53.762Z,17.71
2022-10-17T04:34:44.910Z,17.64
2022-10-17T04:37:13.167Z,17.67
2022-10-17T04:39:42.882Z,17.65
2022-10-17T04:42:11.187Z,17.59
2022-10-17T04:44:39.620Z,17.59
2022-10-17T04:47:09.533Z,17.55
2022-10-17T04:52:15.131Z,17.54
2022-10-17T04:54:52.626Z,17.56
2022-10-17T04:57:22.244Z,17.56
2022-10-17T04:59:58.091Z,17.58
2022-10-17T05:02:39.874Z,17.60
2022-10-17T05:05:08.932Z,17.64
2022-10-17T05:07:40.623Z,17.61
2022-10-17T05:10:15.231Z,17.56
2022-10-17T05:12:48.385Z,17.52
2022-10-17T05:15:18.657Z,17.50
2022-10-17T05:17:47.052Z,17.47
2022-10-17T05:20:15.422Z,17.43
2022-10-17T05:22:43.695Z,17.38
2022-10-17T05:25:14.592Z,17.32
2022-10-17T05:27:42.854Z,17.29
2022-10-17T05:30:11.853Z,17.26
2022-10-17T05:32:41.510Z,17.20
2022-10-17T05:35:10.697Z,17.19
2022-10-17T05:37:40.075Z,17.18
2022-10-17T05:40:09.803Z,17.18
2022-10-17T05:45:11.020Z,17.15
2022-10-17T05:47:39.262Z,17.06
2022-10-17T05:50:08.938Z,17.15
2022-10-17T05:52:54.890Z,17.11
2022-10-17T05:55:24.384Z,17.11
2022-10-17T05:57:54.856Z,17.11
2022-10-17T06:00:29.392Z,17.10
2022-10-17T06:02:59.872Z,17.08
2022-10-17T06:05:28.308Z,17.08
2022-10-17T06:08:01.141Z,17.06
2022-10-17T06:10:34.134Z,17.02
2022-10-17T06:13:03.893Z,17.03
2022-10-17T06:15:32.245Z,16.97
2022-10-17T06:18:04.691Z,16.93
2022-10-17T06:20:33.689Z,16.93
2022-10-17T06:23:03.050Z,16.98
2022-10-17T06:26:00.595Z,16.96
2022-10-17T06:28:32.077Z,16.98
2022-10-17T06:31:00.523Z,16.98
2022-10-17T06:33:28.782Z,16.98
2022-10-17T06:35:58.223Z,16.96
2022-10-17T06:38:27.501Z,16.92
2022-10-17T06:41:05.190Z,16.93
2022-10-17T06:43:35.017Z,16.89
2022-10-17T06:46:21.908Z,16.86
2022-10-17T06:48:57.490Z,16.87
2022-10-17T06:51:41.964Z,16.91
2022-10-17T06:54:13.247Z,16.98
2022-10-17T06:57:00.103Z,17.00
2022-10-17T06:59:48.265Z,17.08
2022-10-17T07:02:23.731Z,17.13
2022-10-17T07:04:53.106Z,17.18
2022-10-17T07:07:21.367Z,17.22
2022-10-17T07:09:49.697Z,17.25
2022-10-17T07:12:19.200Z,17.29
2022-10-17T07:14:50.556Z,17.34
2022-10-17T07:17:19.654Z,16.98
2022-10-17T07:19:48.750Z,17.41
2022-10-17T07:22:18.110Z,17.48
2022-10-17T07:27:28.502Z,17.62
2022-10-17T07:29:58.312Z,17.75
2022-10-17T07:32:35.976Z,17.88
2022-10-17T07:35:05.826Z,18.03
2022-10-17T07:37:34.742Z,18.14
2022-10-17T07:40:03.777Z,18.22
2022-10-17T07:42:32.187Z,18.28
2022-10-17T07:45:01.949Z,18.35
2022-10-17T07:47:35.758Z,18.36
2022-10-17T07:50:05.502Z,18.45
2022-10-17T07:52:33.842Z,18.51
2022-10-17T07:55:02.189Z,18.52
2022-10-17T07:57:30.405Z,18.58
2022-10-17T07:59:58.841Z,18.78
2022-10-17T08:02:29.573Z,19.00
2022-10-17T08:04:58.002Z,19.18
2022-10-17T08:07:29.350Z,19.37
2022-10-17T08:09:58.014Z,19.47
2022-10-17T08:12:26.541Z,19.52
2022-10-17T08:14:55.076Z,19.55
2022-10-17T08:17:23.395Z,19.55
2022-10-17T08:19:53.090Z,19.59
2022-10-17T08:22:21.348Z,19.66
2022-10-17T08:24:49.655Z,19.75
2022-10-17T08:27:23.718Z,19.83
2022-10-17T08:29:54.211Z,19.89
2022-10-17T08:32:25.010Z,19.98
2022-10-17T08:34:55.624Z,20.08
2022-10-17T08:37:24.224Z,20.13
2022-10-17T08:39:52.514Z,20.18
2022-10-17T08:42:42.472Z,20.23
2022-10-17T08:45:19.827Z,20.25
2022-10-17T08:47:52.974Z,20.34
2022-10-17T08:50:30.627Z,20.44
2022-10-17T08:53:03.935Z,20.55
2022-10-17T08:55:39.972Z,20.63
2022-10-17T08:58:16.352Z,20.49
2022-10-17T09:00:51.268Z,20.72
2022-10-17T09:03:42.830Z,20.72
2022-10-17T09:06:20.676Z,20.71
2022-10-17T09:09:01.350Z,20.70
2022-10-17T09:11:53.201Z,20.71
2022-10-17T09:14:41.448Z,20.66
2022-10-17T09:17:22.281Z,20.60
2022-10-17T09:20:01.413Z,20.62
2022-10-17T09:22:39.038Z,20.62
2022-10-17T09:25:13.495Z,20.64
2022-10-17T09:27:45.565Z,20.65
2022-10-17T09:30:45.130Z,20.65
2022-10-17T09:33:28.296Z,20.63
2022-10-17T09:36:07.719Z,20.65
2022-10-17T09:38:43.223Z,20.02
2022-10-17T09:41:43.588Z,20.65
2022-10-17T09:44:20.774Z,20.68
2022-10-17T09:47:00.934Z,20.77
2022-10-17T09:49:34.349Z,20.83
2022-10-17T09:52:04.471Z,20.76
2022-10-17T09:54:44.918Z,20.89
2022-10-17T09:57:14.534Z,20.89
2022-10-17T09:59:44.365Z,20.90
2022-10-17T10:02:24.183Z,20.95
2022-10-17T10:05:06.078Z,21.00
2022-10-17T10:07:38.340Z,21.09
2022-10-17T10:10:27.734Z,21.19
2022-10-17T10:13:20.374Z,21.12
2022-10-17T10:15:50.010Z,21.33
2022-10-17T10:18:33.840Z,21.45
2022-10-17T10:21:11.398Z,21.51
2022-10-17T10:23:41.287Z,21.59
2022-10-17T10:26:24.179Z,21.61
2022-10-17T10:29:02.000Z,21.61
2022-10-17T10:31:33.933Z,21.62
2022-10-17T10:34:04.490Z,21.62
2022-10-17T10:36:49.553Z,21.62
2022-10-17T10:39:30.092Z,21.66
2022-10-17T10:42:00.472Z,21.65
2022-10-17T10:44:31.878Z,21.55
2022-10-17T10:47:15.786Z,21.60
2022-10-17T10:49:44.847Z,21.59
2022-10-17T10:52:20.971Z,21.72
2022-10-17T10:54:57.502Z,21.53
2022-10-17T10:57:32.080Z,21.86
2022-10-17T11:00:07.891Z,21.87
2022-10-17T11:02:42.387Z,21.94
2022-10-17T11:05:17.407Z,22.01
2022-10-17T11:07:53.063Z,22.02
2022-10-17T11:10:29.426Z,21.98
2022-10-17T11:13:05.607Z,21.92
2022-10-17T11:15:40.700Z,21.69
2022-10-17T11:18:13.214Z,21.89
2022-10-17T11:20:52.675Z,21.90
2022-10-17T11:23:25.913Z,21.88
2022-10-17T11:25:55.878Z,21.82
2022-10-17T11:28:26.771Z,21.84
2022-10-17T11:31:04.448Z,21.81
2022-10-17T11:33:43.204Z,21.78
2022-10-17T11:36:12.435Z,21.74
2022-10-17T11:38:46.878Z,21.76
2022-10-17T11:41:20.328Z,21.87
2022-10-17T11:43:56.037Z,21.93
2022-10-17T11:46:25.855Z,21.77
2022-10-17T11:49:02.676Z,21.89
2022-10-17T11:54:30.238Z,21.85
2022-10-17T11:57:14.701Z,21.76
2022-10-17T11:59:58.798Z,21.93
2022-10-17T12:02:39.219Z,21.95
2022-10-17T12:05:25.222Z,21.95
2022-10-17T12:08:00.160Z,21.94
2022-10-17T12:10:53.493Z,21.87
2022-10-17T12:13:51.720Z,21.85
2022-10-17T12:16:45.370Z,21.85
2022-10-17T12:19:33.040Z,21.96
2022-10-17T12:22:05.846Z,22.09
2022-10-17T12:24:42.435Z,21.92
2022-10-17T12:27:25.104Z,22.15
2022-10-17T12:30:01.189Z,22.27
2022-10-17T12:32:46.898Z,22.29
2022-10-17T12:35:23.380Z,22.24
2022-10-17T12:38:28.203Z,22.13
2022-10-17T12:41:04.265Z,22.05
2022-10-17T12:43:46.234Z,22.12
2022-10-17T12:46:34.915Z,22.14
2022-10-17T12:49:20.679Z,22.15
2022-10-17T12:52:18.589Z,22.14
2022-10-17T12:55:00.374Z,22.09
2022-10-17T12:57:40.492Z,22.00
2022-10-17T13:00:18.465Z,22.11
2022-10-17T13:02:47.472Z,21.98
2022-10-17T13:05:28.339Z,22.08
2022-10-17T13:07:58.931Z,22.06
2022-10-17T13:10:30.981Z,22.08
2022-10-17T13:13:07.353Z,22.13
2022-10-17T13:15:37.525Z,22.13
2022-10-17T13:18:06.455Z,22.30
2022-10-17T13:20:36.054Z,22.40
2022-10-17T13:23:04.371Z,22.51
2022-10-17T13:25:35.462Z,22.61
2022-10-17T13:28:14.658Z,22.67
2022-10-17T13:30:49.753Z,22.68
2022-10-17T13:33:30.168Z,22.67
2022-10-17T13:36:01.319Z,22.62
2022-10-17T13:38:35.671Z,22.61
2022-10-17T13:41:34.845Z,22.60
2022-10-17T13:44:08.402Z,22.56
2022-10-17T13:46:39.234Z,22.59
2022-10-17T13:49:16.932Z,22.62
2022-10-17T13:51:49.189Z,22.67
2022-10-17T13:54:40.343Z,22.73
2022-10-17T13:57:19.924Z,22.73
2022-10-17T13:59:50.639Z,22.72
2022-10-17T14:02:22.163Z,22.70
2022-10-17T14:05:18.576Z,22.63
2022-10-17T14:10:44.530Z,22.66
2022-10-17T14:13:25.363Z,22.69
2022-10-17T14:15:55.092Z,22.69
2022-10-17T14:18:26.665Z,22.67
2022-10-17T14:21:32.193Z,22.72
2022-10-17T14:23:45.760Z,22.76
2022-10-17T14:26:16.870Z,22.59
2022-10-17T14:28:47.885Z,22.76
2022-10-17T14:31:31.561Z,22.76
2022-10-17T14:34:01.871Z,22.78
2022-10-17T14:36:37.169Z,22.79
2022-10-17T14:39:14.106Z,22.80
2022-10-17T14:41:45.929Z,22.78
2022-10-17T14:44:22.863Z,22.71
2022-10-17T14:46:56.154Z,22.64
2022-10-17T14:49:29.997Z,22.56
2022-10-17T14:52:28.987Z,22.43
2022-10-17T14:55:00.127Z,22.37
2022-10-17T14:57:36.197Z,22.33
2022-10-17T15:00:05.374Z,22.29
2022-10-17T15:02:33.823Z,22.26
2022-10-17T15:05:02.158Z,22.21
2022-10-17T15:07:30.674Z,22.16
2022-10-17T15:10:00.338Z,22.13
2022-10-17T15:12:28.823Z,22.10
2022-10-17T15:14:57.336Z,21.95
2022-10-17T15:17:27.403Z,22.02
2022-10-17T15:19:56.295Z,21.99
2022-10-17T15:22:25.297Z,21.98
2022-10-17T15:24:53.808Z,21.92
2022-10-17T15:27:24.877Z,21.90
2022-10-17T15:29:53.394Z,21.85
2022-10-17T15:32:21.616Z,21.79
2022-10-17T15:34:50.034Z,21.74
2022-10-17T15:37:22.410Z,21.72
2022-10-17T15:39:53.668Z,21.54
2022-10-17T15:42:27.715Z,21.71
2022-10-17T15:44:56.131Z,21.70
2022-10-17T15:47:28.076Z,21.72
2022-10-17T15:49:56.794Z,21.69
2022-10-17T15:52:25.342Z,21.68
2022-10-17T15:54:53.957Z,21.67
2022-10-17T15:57:27.511Z,21.61
2022-10-17T15:59:58.811Z,21.38
2022-10-17T16:02:27.361Z,21.51
2022-10-17T16:04:55.620Z,21.48
2022-10-17T16:07:23.896Z,21.41
2022-10-17T16:09:52.467Z,21.17
2022-10-17T16:12:31.278Z,21.34
2022-10-17T16:14:59.730Z,21.27
2022-10-17T16:17:28.038Z,21.20
2022-10-17T16:19:56.490Z,21.16
2022-10-17T16:22:32.442Z,21.13
2022-10-17T16:25:07.989Z,21.14
2022-10-17T16:27:38.537Z,21.10
2022-10-17T16:30:09.151Z,20.97
2022-10-17T16:32:38.485Z,20.80
2022-10-17T16:35:07.653Z,21.04
2022-10-17T16:37:36.207Z,21.01
2022-10-17T16:40:05.082Z,21.00
2022-10-17T16:42:33.401Z,20.96
2022-10-17T16:45:03.314Z,20.91
2022-10-17T16:47:32.778Z,20.90
2022-10-17T16:50:00.998Z,20.87
2022-10-17T16:52:29.980Z,20.86
2022-10-17T16:54:58.292Z,20.83
2022-10-17T16:57:26.541Z,20.79
2022-10-17T16:59:54.802Z,20.78
2022-10-17T17:02:24.605Z,20.79
2022-10-17T17:04:52.852Z,20.78
2022-10-17T17:07:22.102Z,20.77
2022-10-17T17:09:50.347Z,20.76
2022-10-17T17:12:18.586Z,20.70
2022-10-17T17:14:46.893Z,20.68
2022-10-17T17:17:24.491Z,20.65
2022-10-17T17:20:05.558Z,20.60
2022-10-17T17:22:34.513Z,20.58
2022-10-17T17:25:02.774Z,20.60
2022-10-17T17:27:31.300Z,20.56
2022-10-17T17:29:59.750Z,20.59
2022-10-17T17:32:27.970Z,20.57
2022-10-17T17:34:56.314Z,20.40
2022-10-17T17:37:26.365Z,20.57
2022-10-17T17:39:54.628Z,21.27
2022-10-17T17:42:22.878Z,20.89
2022-10-17T17:44:52.231Z,20.74
2022-10-17T17:47:20.563Z,20.67
2022-10-17T17:49:48.834Z,20.61
2022-10-17T17:52:17.048Z,20.56
2022-10-17T17:54:47.205Z,20.53
2022-10-17T17:57:15.401Z,20.51
2022-10-17T17:59:44.075Z,20.44
2022-10-17T18:02:12.716Z,20.48
2022-10-17T18:04:40.958Z,20.46
2022-10-17T18:07:09.270Z,20.47
2022-10-17T18:09:37.491Z,20.48
2022-10-17T18:12:07.247Z,20.47
2022-10-17T18:14:35.503Z,20.43
2022-10-17T18:17:03.839Z,20.45
2022-10-17T18:19:32.180Z,20.44
2022-10-17T18:22:00.441Z,20.43
2022-10-17T18:24:28.693Z,20.46
2022-10-17T18:26:59.940Z,20.44
2022-10-17T18:29:31.244Z,20.44
2022-10-17T18:32:00.267Z,20.45
2022-10-17T18:34:28.900Z,20.23
2022-10-17T18:36:58.936Z,20.40
2022-10-17T18:39:27.312Z,20.49
2022-10-17T18:41:55.681Z,20.51
2022-10-17T18:44:24.215Z,20.50
2022-10-17T18:46:53.943Z,20.53
2022-10-17T18:49:23.273Z,20.53
2022-10-17T18:51:51.819Z,20.53
2022-10-17T18:54:22.144Z,20.53
2022-10-17T18:56:51.452Z,20.52
2022-10-17T18:59:20.276Z,20.51
2022-10-17T19:01:49.010Z,20.48
2022-10-17T19:04:18.816Z,20.49
2022-10-17T19:06:47.129Z,20.38
2022-10-17T19:09:16.635Z,20.46
2022-10-17T19:11:45.080Z,20.45
2022-10-17T19:14:14.572Z,20.46
2022-10-17T19:16:44.733Z,20.09
2022-10-17T19:19:14.997Z,20.45
2022-10-17T19:21:45.199Z,20.48
2022-10-17T19:24:15.524Z,20.48
2022-10-17T19:26:45.061Z,20.46
2022-10-17T19:29:15.502Z,20.27
2022-10-17T19:31:44.385Z,20.45
2022-10-17T19:34:13.769Z,20.46
2022-10-17T19:36:43.011Z,20.47
2022-10-17T19:39:14.791Z,20.45
2022-10-17T19:41:43.853Z,20.45
2022-10-17T19:44:12.618Z,20.43
2022-10-17T19:46:41.626Z,20.43
2022-10-17T19:49:09.838Z,20.42
2022-10-17T19:51:38.103Z,20.39
2022-10-17T19:54:06.362Z,20.32
2022-10-17T19:56:38.180Z,20.27
2022-10-17T19:59:07.522Z,20.21
2022-10-17T20:01:39.081Z,20.15
2022-10-17T20:04:07.778Z,20.11
2022-10-17T20:06:36.666Z,20.06
2022-10-17T20:09:05.661Z,20.01
2022-10-17T20:11:35.426Z,19.95
2022-10-17T20:14:03.798Z,19.86
2022-10-17T20:16:34.344Z,19.55
2022-10-17T20:19:05.725Z,19.78
2022-10-17T20:21:36.730Z,19.72
2022-10-17T20:24:06.674Z,19.47
2022-10-17T20:26:38.522Z,19.62
2022-10-17T20:29:11.191Z,19.56
2022-10-17T20:31:41.128Z,19.48
2022-10-17T20:34:12.689Z,19.41
2022-10-17T20:36:41.287Z,19.39
2022-10-17T20:39:11.845Z,19.31
2022-10-17T20:41:41.643Z,19.25
2022-10-17T20:44:10.274Z,19.21
2022-10-17T20:46:45.258Z,19.21
2022-10-17T20:49:18.482Z,19.20
2022-10-17T20:51:47.020Z,19.18
2022-10-17T20:54:15.464Z,19.19
2022-10-17T20:56:46.275Z,19.22
2022-10-17T20:59:16.288Z,19.13
2022-10-17T21:01:45.874Z,19.20
2022-10-17T21:04:44.804Z,19.16
2022-10-17T21:07:03.395Z,19.12
2022-10-17T21:09:31.601Z,19.14
2022-10-17T21:14:36.483Z,19.11
2022-10-17T21:17:05.626Z,18.82
2022-10-17T21:19:34.051Z,19.09
2022-10-17T21:22:02.441Z,19.08
2022-10-17T21:24:31.764Z,19.05
2022-10-17T21:27:01.540Z,18.99
2022-10-17T21:29:29.864Z,18.98
2022-10-17T21:31:58.523Z,18.95
2022-10-17T21:34:27.874Z,18.93
2022-10-17T21:36:56.390Z,18.83
2022-10-17T21:39:25.262Z,18.90
2022-10-17T21:41:54.347Z,18.85
2022-10-17T21:44:26.422Z,18.88
2022-10-17T21:46:56.127Z,18.84
2022-10-17T21:49:26.161Z,18.86
2022-10-17T21:51:54.963Z,18.81
2022-10-17T21:54:24.249Z,18.76
2022-10-17T21:56:52.975Z,18.70
2022-10-17T21:59:21.329Z,18.67
2022-10-17T22:01:51.043Z,18.65
2022-10-17T22:04:20.753Z,18.31
2022-10-17T22:06:52.446Z,18.58
2022-10-17T22:09:23.447Z,18.54
2022-10-17T22:11:54.523Z,18.54
2022-10-17T22:14:24.610Z,18.50
2022-10-17T22:16:54.719Z,18.43
2022-10-17T22:19:25.157Z,18.38
2022-10-17T22:21:53.960Z,18.34
2022-10-17T22:24:23.629Z,18.31
2022-10-17T22:26:52.555Z,18.28
2022-10-17T22:29:21.058Z,18.12
2022-10-17T22:31:49.323Z,18.28
2022-10-17T22:34:19.718Z,18.31
2022-10-17T22:36:49.140Z,18.33
2022-10-17T22:39:17.602Z,18.21
2022-10-17T22:41:45.977Z,18.32
2022-10-17T22:44:14.266Z,18.28
2022-10-17T22:46:42.590Z,18.27
2022-10-17T22:49:10.983Z,18.19
2022-10-17T22:51:40.665Z,18.24
2022-10-17T22:54:08.899Z,18.20
2022-10-17T22:56:37.146Z,18.13
2022-10-17T22:59:05.464Z,18.07
2022-10-17T23:01:33.877Z,17.99
2022-10-17T23:04:02.251Z,17.94
2022-10-17T23:06:30.561Z,17.90
2022-10-17T23:09:00.169Z,17.84
2022-10-17T23:11:28.466Z,17.77
2022-10-17T23:13:56.762Z,17.77
2022-10-17T23:16:25.039Z,17.72
2022-10-17T23:18:53.366Z,17.66
2022-10-17T23:21:21.537Z,17.63
2022-10-17T23:23:49.784Z,17.63
2022-10-17T23:26:19.428Z,17.58
2022-10-17T23:28:47.818Z,17.15
2022-10-17T23:31:18.870Z,17.48
2022-10-17T23:33:48.743Z,17.39
2022-10-17T23:36:19.955Z,17.32
2022-10-17T23:38:50.187Z,17.23
2022-10-17T23:41:20.652Z,17.21
2022-10-17T23:43:48.957Z,17.22
2022-10-17T23:46:17.189Z,17.26
2022-10-17T23:48:45.472Z,17.27
2022-10-17T23:51:14.019Z,17.31
2022-10-17T23:53:42.479Z,17.35
2022-10-17T23:56:11.671Z,17.37
2022-10-17T23:58:41.622Z,17.35
